Time;durP1;ratioP1;P1;durP2;ratioP2;P2;SDS_P1;SDS_P2;PMS_P1;PMS_P2;Temp;Humidity;BMP_temperature;BMP_pressure;BME280_temperature;BME280_humidity;BME280_pressure;Samples;Min_cycle;Max_cycle;Signal;HPM_P1;HPM_P2
2023/06/05 00:00:09;;;;;;;4.60;2.70;;;;;;;13.78;56.97;100439.58;105302;1262;59765;-72
2023/06/05 00:02:40;;;;;;;7.10;2.90;;;;;;;13.73;57.07;100442.00;105246;1263;71938;-71
2023/06/05 00:05:09;;;;;;;5.10;2.90;;;;;;;13.67;57.18;100441.45;105427;1261;70810;-74
2023/06/05 00:07:37;;;;;;;7.40;3.40;;;;;;;13.61;57.38;100441.66;105341;1264;71073;-74
2023/06/05 00:10:06;;;;;;;7.40;3.00;;;;;;;13.55;57.45;100441.28;105376;1264;60157;-73
2023/06/05 00:12:34;;;;;;;7.10;3.40;;;;;;;13.48;57.55;100434.63;105538;1262;60067;-75
2023/06/05 00:15:04;;;;;;;5.50;3.40;;;;;;;13.41;57.74;100434.84;105790;1262;72980;-73
2023/06/05 00:17:32;;;;;;;5.20;3.00;;;;;;;13.34;57.67;100435.70;105827;1258;71418;-72
2023/06/05 00:20:00;;;;;;;5.40;2.70;;;;;;;13.30;57.67;100435.17;105695;1262;71826;-72
2023/06/05 00:22:33;;;;;;;4.10;2.60;;;;;;;13.26;57.71;100431.08;105899;1264;59648;-72
2023/06/05 00:25:01;;;;;;;7.30;3.60;;;;;;;13.24;57.48;100434.23;106081;1260;60888;-77
2023/06/05 00:27:29;;;;;;;6.20;2.70;;;;;;;13.21;57.54;100431.73;106002;1256;71407;-74
2023/06/05 00:29:57;;;;;;;6.40;3.00;;;;;;;13.15;57.83;100431.38;106133;1258;68816;-74
2023/06/05 00:32:24;;;;;;;5.60;3.10;;;;;;;13.11;57.90;100430.77;106231;1260;72773;-74
2023/06/05 00:34:52;;;;;;;4.60;3.00;;;;;;;13.08;58.01;100428.41;106728;1260;59499;-74
2023/06/05 00:37:20;;;;;;;5.50;3.30;;;;;;;13.07;58.04;100430.00;106729;1257;60035;-73
2023/06/05 00:39:47;;;;;;;6.00;2.60;;;;;;;13.04;58.30;100429.80;106902;1263;76957;-73
2023/06/05 00:42:15;;;;;;;6.60;3.10;;;;;;;12.96;58.49;100427.91;107420;1257;68704;-76
2023/06/05 00:44:42;;;;;;;4.80;3.00;;;;;;;12.92;58.71;100432.48;107314;1257;71396;-72
2023/06/05 00:47:10;;;;;;;5.40;2.80;;;;;;;12.89;58.98;100430.67;106423;1262;59661;-73
2023/06/05 00:49:38;;;;;;;5.20;2.70;;;;;;;12.85;59.18;100427.98;106068;1262;59723;-70
2023/06/05 00:52:06;;;;;;;5.00;2.70;;;;;;;12.78;59.39;100430.30;105851;1264;71641;-73
2023/06/05 00:54:34;;;;;;;4.90;3.20;;;;;;;12.73;59.47;100428.00;105998;1257;70048;-72
2023/06/05 00:57:01;;;;;;;4.10;2.50;;;;;;;12.69;59.48;100431.36;106074;1260;71375;-72
2023/06/05 00:59:31;;;;;;;4.30;2.60;;;;;;;12.69;59.48;100429.86;106013;1257;61339;-72
2023/06/05 01:02:00;;;;;;;6.80;3.10;;;;;;;12.68;59.43;100431.12;105771;1258;60271;-72
2023/06/05 01:04:29;;;;;;;6.60;3.00;;;;;;;12.66;59.51;100433.18;106546;1257;71489;-74
2023/06/05 01:07:01;;;;;;;5.50;2.60;;;;;;;12.63;59.53;100427.81;107927;1256;68835;-73
2023/06/05 01:09:33;;;;;;;3.10;2.50;;;;;;;12.62;59.46;100430.09;107430;1258;71934;-75
2023/06/05 01:12:10;;;;;;;;;;;;;;;12.61;59.49;100429.48;107831;1262;59144;-73
2023/06/05 01:14:38;;;;;;;7.10;3.30;;;;;;;12.57;59.73;100425.58;107221;1261;59875;-73
2023/06/05 01:17:08;;;;;;;7.50;2.90;;;;;;;12.48;59.87;100419.14;106308;1257;71749;-73
2023/06/05 01:19:39;;;;;;;11.50;3.20;;;;;;;12.47;60.08;100423.23;106074;1265;68891;-72
2023/06/05 01:22:07;;;;;;;10.20;3.80;;;;;;;12.46;60.23;100423.02;106640;1263;72787;-72
2023/06/05 01:24:35;;;;;;;6.30;3.50;;;;;;;12.45;60.68;100424.35;106643;1260;59662;-75
2023/06/05 01:27:25;;;;;;;7.00;3.50;;;;;;;12.43;60.97;100425.68;107228;1257;59570;-74
2023/06/05 01:29:56;;;;;;;6.40;3.00;;;;;;;12.39;61.14;100427.45;106923;1263;71667;-72
2023/06/05 01:32:36;;;;;;;4.10;2.90;;;;;;;12.37;60.97;100422.32;107494;1257;69819;-74
2023/06/05 01:35:10;;;;;;;5.70;2.80;;;;;;;12.40;60.92;100427.94;106626;1258;72913;-72
2023/06/05 01:37:41;;;;;;;;;;;;;;;12.41;61.13;100427.62;106916;1263;59612;-75
2023/06/05 01:40:14;;;;;;;7.20;3.10;;;;;;;12.41;61.28;100425.31;107031;1257;59565;-74
2023/06/05 01:42:42;;;;;;;6.30;2.60;;;;;;;12.41;61.10;100429.65;106945;1257;71799;-73
2023/06/05 01:45:10;;;;;;;6.80;2.50;;;;;;;12.40;61.15;100427.23;108416;1257;70037;-74
2023/06/05 01:47:38;;;;;;;5.40;2.90;;;;;;;12.40;61.17;100423.15;108661;1257;71142;-74
2023/06/05 01:50:07;;;;;;;4.50;3.00;;;;;;;12.42;61.12;100424.79;107946;1258;58903;-73
2023/06/05 01:52:35;;;;;;;5.20;2.70;;;;;;;12.44;61.10;100423.49;107599;1260;58939;-71
2023/06/05 01:55:03;;;;;;;3.60;2.40;;;;;;;12.45;61.16;100423.36;108373;1257;71801;-73
2023/06/05 01:57:33;;;;;;;6.40;2.90;;;;;;;12.44;61.33;100423.28;108724;1257;69057;-73
2023/06/05 02:00:08;;;;;;;5.90;3.60;;;;;;;12.44;61.44;100425.22;108831;1257;71032;-72
2023/06/05 02:02:45;;;;;;;8.70;3.10;;;;;;;12.45;61.42;100424.19;108965;1257;58868;-72
2023/06/05 02:05:14;;;;;;;8.80;3.60;;;;;;;12.47;61.44;100425.94;108802;1257;58998;-74
2023/06/05 02:07:48;;;;;;;6.00;2.90;;;;;;;12.50;61.53;100427.73;108781;1257;71748;-73
2023/06/05 02:10:18;;;;;;;5.80;2.80;;;;;;;12.51;61.61;100427.44;108762;1257;68839;-73
2023/06/05 02:12:46;;;;;;;7.30;3.20;;;;;;;12.47;61.51;100422.03;108890;1260;71169;-72
2023/06/05 02:15:14;;;;;;;4.80;2.70;;;;;;;12.46;61.42;100423.89;108570;1259;59237;-71
2023/06/05 02:17:50;;;;;;;5.80;3.40;;;;;;;12.48;61.52;100424.30;108647;1257;58804;-70
2023/06/05 02:20:26;;;;;;;3.40;2.60;;;;;;;12.49;61.55;100420.20;108955;1257;73796;-71
2023/06/05 02:22:54;;;;;;;6.60;3.30;;;;;;;12.51;61.43;100421.96;108810;1258;68925;-70
2023/06/05 02:25:25;;;;;;;5.70;3.10;;;;;;;12.51;61.25;100422.58;108223;1257;71713;-71
2023/06/05 02:27:54;;;;;;;7.00;3.20;;;;;;;12.50;61.20;100424.57;108248;1259;59261;-70
2023/06/05 02:30:22;;;;;;;5.70;3.10;;;;;;;12.47;61.11;100426.57;108659;1260;58169;-75
2023/06/05 02:32:56;;;;;;;5.90;3.20;;;;;;;12.47;61.09;100428.13;108902;1257;71809;-73
2023/06/05 02:35:26;;;;;;;4.80;3.10;;;;;;;12.45;60.98;100422.27;108907;1257;69778;-73
2023/06/05 02:37:56;;;;;;;5.00;3.20;;;;;;;12.54;60.95;100426.08;108808;1257;71228;-76
2023/06/05 02:40:23;;;;;;;4.20;2.90;;;;;;;12.61;60.92;100427.65;108448;1257;58851;-73
2023/06/05 02:42:51;;;;;;;5.70;3.00;;;;;;;12.66;60.91;100424.42;108021;1257;58755;-74
2023/06/05 02:45:18;;;;;;;7.40;3.40;;;;;;;12.72;60.49;100425.96;108592;1257;71923;-74
2023/06/05 02:47:46;;;;;;;5.80;3.00;;;;;;;12.77;60.00;100421.54;108005;1257;68841;-74
2023/06/05 02:50:14;;;;;;;7.50;2.80;;;;;;;12.84;58.66;100421.67;107147;1257;72424;-76
2023/06/05 02:52:45;;;;;;;4.70;2.60;;;;;;;12.91;57.10;100422.30;108509;1257;59399;-71
2023/06/05 02:55:17;;;;;;;6.10;2.80;;;;;;;12.99;56.44;100417.70;108402;1257;59051;-72
2023/06/05 02:57:48;;;;;;;7.30;2.80;;;;;;;13.07;55.62;100413.97;108481;1257;72468;-70
2023/06/05 03:00:21;;;;;;;6.50;2.60;;;;;;;13.16;54.81;100411.42;108584;1257;70888;-73
2023/06/05 03:02:55;;;;;;;7.30;3.10;;;;;;;13.24;53.77;100411.75;108526;1257;70279;-73
2023/06/05 03:05:29;;;;;;;4.80;3.00;;;;;;;13.33;52.61;100412.03;108180;1257;60292;-75
2023/06/05 03:08:08;;;;;;;7.10;3.00;;;;;;;13.42;51.64;100414.58;108066;1258;59244;-75
2023/06/05 03:10:36;;;;;;;3.80;2.60;;;;;;;13.50;50.85;100413.66;106560;1264;72970;-72
2023/06/05 03:13:04;;;;;;;3.70;2.40;;;;;;;13.59;50.42;100414.34;105721;1267;68391;-75
2023/06/05 03:15:34;;;;;;;5.50;2.50;;;;;;;13.65;49.97;100416.70;105423;1258;72263;-75
2023/06/05 03:18:03;;;;;;;4.60;1.90;;;;;;;13.73;50.15;100419.94;105204;1262;60793;-76
2023/06/05 03:20:31;;;;;;;9.00;3.10;;;;;;;13.78;50.10;100420.23;105483;1257;60544;-71
2023/06/05 03:23:00;;;;;;;4.40;2.70;;;;;;;13.83;50.42;100417.37;105113;1258;72669;-74
2023/06/05 03:25:27;;;;;;;6.60;2.70;;;;;;;13.88;50.60;100420.15;105560;1257;70082;-73
2023/06/05 03:27:56;;;;;;;7.50;3.40;;;;;;;13.92;50.60;100420.21;105353;1258;72677;-74
2023/06/05 03:30:25;;;;;;;7.10;2.70;;;;;;;13.96;50.26;100417.64;105319;1258;60419;-75
2023/06/05 03:32:54;;;;;;;4.70;2.20;;;;;;;14.00;50.19;100417.43;105322;1257;60540;-73
2023/06/05 03:35:22;;;;;;;7.00;2.70;;;;;;;14.03;49.60;100417.39;105617;1260;72058;-73
2023/06/05 03:37:50;;;;;;;6.50;2.00;;;;;;;14.07;49.46;100417.36;105233;1264;70423;-74
2023/06/05 03:40:19;;;;;;;3.60;2.20;;;;;;;14.10;49.11;100416.98;105235;1257;72904;-73
2023/06/05 03:42:47;;;;;;;4.00;2.40;;;;;;;14.14;49.10;100419.01;105147;1260;60552;-73
2023/06/05 03:45:15;;;;;;;4.20;2.70;;;;;;;14.19;49.16;100420.75;105229;1258;60502;-72
2023/06/05 03:47:46;;;;;;;5.10;2.20;;;;;;;14.25;49.15;100421.54;105488;1257;76120;-75
2023/06/05 03:50:14;;;;;;;3.50;1.90;;;;;;;14.31;48.43;100423.35;105117;1263;70392;-73
2023/06/05 03:52:43;;;;;;;5.30;2.60;;;;;;;14.37;47.86;100418.73;105346;1263;71555;-72
2023/06/05 03:55:10;;;;;;;4.30;2.00;;;;;;;14.43;47.71;100420.38;105232;1259;60435;-73
2023/06/05 03:57:38;;;;;;;6.10;2.40;;;;;;;14.49;47.57;100423.41;105137;1263;60419;-74
2023/06/05 04:00:10;;;;;;;6.00;2.20;;;;;;;14.55;47.30;100422.54;105500;1257;72995;-73
2023/06/05 04:02:43;;;;;;;4.60;2.00;;;;;;;14.62;47.48;100419.38;105102;1257;70332;-71
2023/06/05 04:05:13;;;;;;;3.50;1.90;;;;;;;14.70;47.39;100418.48;105311;1257;71415;-73
2023/06/05 04:07:41;;;;;;;5.60;2.00;;;;;;;14.79;46.82;100416.08;105094;1264;60595;-74
2023/06/05 04:10:10;;;;;;;4.50;1.80;;;;;;;14.86;46.64;100419.87;105268;1257;60360;-72
2023/06/05 04:12:38;;;;;;;4.10;1.70;;;;;;;14.93;46.55;100416.86;105295;1257;73944;-71
2023/06/05 04:15:06;;;;;;;4.40;2.00;;;;;;;15.01;46.93;100419.21;105197;1263;68874;-71
2023/06/05 04:17:34;;;;;;;4.90;1.90;;;;;;;15.09;46.57;100421.61;105461;1257;70479;-70
2023/06/05 04:20:02;;;;;;;3.80;1.60;;;;;;;15.18;46.07;100425.83;105222;1261;60417;-72
2023/06/05 04:22:31;;;;;;;6.10;1.60;;;;;;;15.24;45.62;100430.00;105158;1257;60395;-72
2023/06/05 04:24:58;;;;;;;5.70;2.10;;;;;;;15.30;45.57;100427.17;105214;1258;73005;-71
2023/06/05 04:27:28;;;;;;;3.20;1.80;;;;;;;15.38;45.72;100423.34;105127;1258;68887;-72
2023/06/05 04:29:56;;;;;;;3.10;1.50;;;;;;;15.51;45.59;100425.52;105253;1264;71480;-71
2023/06/05 04:32:25;;;;;;;3.30;1.70;;;;;;;15.67;45.30;100422.27;105247;1261;60446;-71
2023/06/05 04:34:53;;;;;;;5.00;1.60;;;;;;;15.83;45.32;100421.08;105398;1261;60455;-72
2023/06/05 04:37:20;;;;;;;5.70;2.20;;;;;;;16.00;45.37;100420.30;105295;1258;72655;-72
2023/06/05 04:39:48;;;;;;;3.70;2.30;;;;;;;16.17;45.37;100422.98;105299;1261;69443;-73
2023/06/05 04:42:17;;;;;;;9.60;2.70;;;;;;;16.36;45.27;100425.31;105175;1258;71659;-71
2023/06/05 04:44:57;;;;;;;7.10;2.10;;;;;;;16.57;45.04;100423.47;105289;1261;60984;-72
2023/06/05 04:47:25;;;;;;;3.50;2.00;;;;;;;16.77;44.66;100422.48;105420;1263;60436;-70
2023/06/05 04:49:53;;;;;;;5.40;2.50;;;;;;;16.92;44.46;100419.98;105146;1257;72835;-71
2023/06/05 04:52:23;;;;;;;3.10;2.10;;;;;;;17.01;44.38;100418.52;105258;1257;70658;-74
2023/06/05 04:54:51;;;;;;;5.00;2.00;;;;;;;17.09;44.54;100417.86;105290;1260;73162;-71
2023/06/05 04:57:19;;;;;;;2.20;1.80;;;;;;;17.19;43.96;100421.49;105320;1261;60426;-73
2023/06/05 04:59:47;;;;;;;16.40;1.90;;;;;;;17.35;43.02;100422.85;105060;1257;60400;-72
2023/06/05 05:02:15;;;;;;;4.20;2.10;;;;;;;17.46;42.27;100424.38;105244;1260;73966;-72
2023/06/05 05:04:44;;;;;;;5.00;1.60;;;;;;;17.49;41.88;100427.98;105349;1257;70080;-71
2023/06/05 05:07:15;;;;;;;2.60;1.70;;;;;;;17.49;41.69;100433.66;105254;1259;75186;-72
2023/06/05 05:09:43;;;;;;;3.40;1.60;;;;;;;17.51;41.58;100423.99;105256;1264;60419;-75
2023/06/05 05:12:11;;;;;;;3.30;1.80;;;;;;;17.54;41.83;100424.38;105310;1257;60366;-75
2023/06/05 05:14:42;;;;;;;4.50;1.80;;;;;;;17.56;41.82;100423.69;105044;1258;72635;-72
2023/06/05 05:17:10;;;;;;;3.00;1.50;;;;;;;17.62;41.89;100426.91;105190;1261;69044;-73
2023/06/05 05:19:40;;;;;;;3.40;1.70;;;;;;;17.67;41.75;100433.10;105220;1257;72938;-74
2023/06/05 05:22:08;;;;;;;3.10;1.80;;;;;;;17.69;41.58;100427.78;105445;1262;60607;-74
2023/06/05 05:24:36;;;;;;;2.30;2.00;;;;;;;17.76;41.90;100427.66;105397;1258;60542;-74
2023/06/05 05:27:03;;;;;;;10.80;2.30;;;;;;;17.83;42.26;100426.80;105488;1257;73905;-74
2023/06/05 05:29:33;;;;;;;4.20;2.40;;;;;;;17.93;41.46;100436.24;105481;1257;68904;-74
2023/06/05 05:32:01;;;;;;;3.60;1.70;;;;;;;17.95;41.15;100433.74;105392;1264;71560;-72
2023/06/05 05:34:29;;;;;;;5.40;1.60;;;;;;;17.99;41.38;100431.68;105281;1260;60543;-72
2023/06/05 05:36:57;;;;;;;5.50;2.40;;;;;;;18.04;41.29;100435.64;105315;1263;62481;-73
2023/06/05 05:39:24;;;;;;;3.30;1.70;;;;;;;18.10;41.24;100434.51;105192;1262;72945;-74
2023/06/05 05:41:52;;;;;;;2.70;1.80;;;;;;;18.17;41.51;100432.71;105354;1258;71470;-72
2023/06/05 05:44:19;;;;;;;3.10;1.80;;;;;;;18.26;41.80;100433.94;105018;1257;71142;-73
2023/06/05 05:46:47;;;;;;;3.00;1.50;;;;;;;18.37;41.71;100432.08;105233;1257;60644;-73
2023/06/05 05:49:15;;;;;;;3.70;1.80;;;;;;;18.43;40.77;100431.02;105351;1258;60363;-71
2023/06/05 05:51:42;;;;;;;5.00;1.70;;;;;;;18.47;40.79;100430.04;105177;1263;72508;-75
2023/06/05 05:54:10;;;;;;;4.40;2.10;;;;;;;18.51;40.87;100433.08;105520;1257;68884;-71
2023/06/05 05:56:37;;;;;;;2.40;1.50;;;;;;;18.56;40.57;100426.54;105299;1264;71379;-71
2023/06/05 05:59:05;;;;;;;3.30;1.80;;;;;;;18.60;40.97;100429.41;105507;1259;62242;-69
2023/06/05 06:01:32;;;;;;;5.80;2.00;;;;;;;18.67;41.17;100430.46;105064;1257;60504;-69
2023/06/05 06:04:00;;;;;;;2.50;1.60;;;;;;;18.74;41.36;100432.38;105166;1257;73855;-70
2023/06/05 06:06:27;;;;;;;2.50;1.40;;;;;;;18.82;41.35;100428.00;105098;1262;68903;-68
2023/06/05 06:08:55;;;;;;;1.90;1.40;;;;;;;18.92;41.19;100429.05;105181;1258;72707;-70
2023/06/05 06:11:22;;;;;;;2.40;1.50;;;;;;;19.00;41.10;100424.72;105378;1263;60394;-70
2023/06/05 06:13:50;;;;;;;5.60;1.80;;;;;;;19.08;40.15;100426.63;105071;1257;60884;-71
2023/06/05 06:16:18;;;;;;;5.60;1.90;;;;;;;19.11;39.95;100429.56;105358;1257;74378;-69
2023/06/05 06:18:46;;;;;;;4.50;1.90;;;;;;;19.15;39.94;100424.92;105066;1261;69039;-70
2023/06/05 06:21:14;;;;;;;3.10;1.50;;;;;;;19.21;40.16;100426.42;105208;1260;71449;-70
2023/06/05 06:23:42;;;;;;;3.20;1.70;;;;;;;19.27;40.06;100425.49;105063;1259;60621;-73
2023/06/05 06:26:11;;;;;;;3.20;2.10;;;;;;;19.30;40.12;100426.37;105253;1260;60439;-72
2023/06/05 06:28:38;;;;;;;3.00;1.70;;;;;;;19.36;40.20;100424.94;105612;1257;72560;-69
2023/06/05 06:31:07;;;;;;;4.70;2.30;;;;;;;19.41;39.80;100421.77;105572;1259;70689;-71
2023/06/05 06:33:36;;;;;;;2.80;1.80;;;;;;;19.49;40.03;100424.23;105434;1257;72637;-72
2023/06/05 06:36:04;;;;;;;4.90;1.80;;;;;;;19.55;40.11;100425.21;105496;1258;60892;-72
2023/06/05 06:38:32;;;;;;;2.70;1.40;;;;;;;19.62;39.89;100424.12;105577;1261;60745;-70
2023/06/05 06:40:59;;;;;;;3.40;2.00;;;;;;;19.70;39.09;100424.60;105661;1258;73793;-74
2023/06/05 06:43:27;;;;;;;4.10;1.90;;;;;;;19.75;38.93;100424.07;105499;1263;68822;-73
2023/06/05 06:46:01;;;;;;;2.20;1.40;;;;;;;19.79;38.78;100426.01;105560;1261;71334;-70
2023/06/05 06:48:29;;;;;;;1.50;1.40;;;;;;;19.82;38.17;100437.12;105312;1263;61061;-73
2023/06/05 06:50:57;;;;;;;2.20;1.30;;;;;;;19.82;37.23;100434.89;105672;1257;60500;-74
2023/06/05 06:53:24;;;;;;;3.40;1.40;;;;;;;19.78;37.82;100434.18;105424;1257;72780;-74
2023/06/05 06:55:52;;;;;;;3.20;1.60;;;;;;;19.76;38.24;100431.49;105493;1258;70172;-73
2023/06/05 06:58:19;;;;;;;4.40;1.70;;;;;;;19.78;38.17;100433.02;105451;1263;72867;-73
2023/06/05 07:00:47;;;;;;;4.00;1.60;;;;;;;19.83;37.72;100438.15;105659;1262;60525;-73
2023/06/05 07:03:16;;;;;;;2.10;1.50;;;;;;;19.85;37.93;100435.33;105512;1258;60436;-73
2023/06/05 07:05:43;;;;;;;3.40;1.60;;;;;;;19.87;37.71;100436.94;105582;1258;74082;-72
2023/06/05 07:08:11;;;;;;;5.90;2.00;;;;;;;19.89;37.80;100433.94;105175;1257;68520;-70
2023/06/05 07:10:39;;;;;;;2.50;1.80;;;;;;;19.96;38.11;100435.38;105236;1257;72766;-71
2023/06/05 07:13:07;;;;;;;2.00;1.50;;;;;;;20.06;38.08;100435.79;105618;1258;60540;-70
2023/06/05 07:15:34;;;;;;;5.10;1.80;;;;;;;20.16;37.40;100436.61;104831;1257;60965;-72
2023/06/05 07:18:02;;;;;;;2.50;1.50;;;;;;;20.22;37.19;100434.85;105039;1263;73795;-70
2023/06/05 07:20:32;;;;;;;2.90;1.60;;;;;;;20.28;36.84;100438.02;105239;1257;73105;-72
2023/06/05 07:22:59;;;;;;;4.00;1.40;;;;;;;20.35;37.06;100433.54;105138;1258;72949;-71
2023/06/05 07:25:28;;;;;;;1.50;1.30;;;;;;;20.47;36.86;100435.17;105408;1259;60470;-69
2023/06/05 07:27:56;;;;;;;3.20;1.40;;;;;;;20.51;36.21;100428.42;105244;1258;60478;-70
2023/06/05 07:30:23;;;;;;;1.80;1.30;;;;;;;20.53;36.28;100437.68;105338;1261;73853;-69
2023/06/05 07:32:51;;;;;;;1.60;1.30;;;;;;;20.52;35.61;100432.77;105203;1261;69039;-72
2023/06/05 07:35:18;;;;;;;3.20;1.40;;;;;;;20.51;35.73;100425.11;105592;1262;71641;-72
2023/06/05 07:37:46;;;;;;;2.60;1.30;;;;;;;20.54;36.03;100432.52;105206;1257;60575;-72
2023/06/05 07:40:14;;;;;;;3.10;1.30;;;;;;;20.62;35.64;100433.59;105191;1257;60684;-69
2023/06/05 07:42:41;;;;;;;1.90;1.20;;;;;;;20.67;35.71;100424.16;105242;1260;73881;-73
2023/06/05 07:45:10;;;;;;;1.40;1.20;;;;;;;20.70;35.54;100425.05;105281;1257;70331;-69
2023/06/05 07:47:37;;;;;;;1.50;1.00;;;;;;;20.77;35.28;100417.12;105371;1258;72465;-72
2023/06/05 07:50:06;;;;;;;3.50;1.60;;;;;;;20.85;35.27;100416.90;105145;1257;60640;-72
2023/06/05 07:52:35;;;;;;;1.70;1.10;;;;;;;20.94;35.72;100415.59;105257;1257;60521;-71
2023/06/05 07:55:04;;;;;;;1.80;1.50;;;;;;;21.09;36.03;100410.00;105174;1261;73932;-70
2023/06/05 07:57:32;;;;;;;3.40;1.80;;;;;;;21.30;35.91;100414.68;105381;1263;69516;-70
2023/06/05 07:59:59;;;;;;;1.60;1.10;;;;;;;21.50;35.23;100417.98;105073;1257;71718;-68
2023/06/05 08:02:27;;;;;;;2.50;1.50;;;;;;;21.59;34.63;100418.88;105195;1260;60552;-68
2023/06/05 08:04:55;;;;;;;3.50;1.50;;;;;;;21.62;34.54;100424.43;105166;1258;60521;-72
2023/06/05 08:07:22;;;;;;;1.40;1.30;;;;;;;21.66;34.47;100424.88;105485;1259;71846;-70
2023/06/05 08:09:50;;;;;;;2.00;1.40;;;;;;;21.71;34.09;100427.18;105279;1258;70025;-69
2023/06/05 08:12:17;;;;;;;4.10;1.60;;;;;;;21.75;34.10;100425.37;105216;1258;71944;-70
2023/06/05 08:14:45;;;;;;;1.50;1.40;;;;;;;21.85;34.23;100421.02;105126;1261;60576;-70
2023/06/05 08:17:12;;;;;;;1.80;1.40;;;;;;;22.04;34.33;100425.73;105118;1258;60591;-70
2023/06/05 08:19:40;;;;;;;1.50;1.40;;;;;;;22.28;34.27;100426.40;105032;1257;73804;-72
2023/06/05 08:22:07;;;;;;;2.60;1.50;;;;;;;22.48;33.86;100428.25;105234;1259;70651;-68
2023/06/05 08:24:36;;;;;;;2.80;1.70;;;;;;;22.64;33.92;100429.48;105430;1263;71389;-70
2023/06/05 08:27:04;;;;;;;1.80;1.50;;;;;;;22.80;34.38;100427.83;105151;1257;60528;-68
2023/06/05 08:29:35;;;;;;;3.60;2.00;;;;;;;22.94;34.77;100431.65;105153;1257;61051;-73
2023/06/05 08:32:04;;;;;;;6.30;1.60;;;;;;;23.04;34.32;100429.91;105597;1259;74174;-73
2023/06/05 08:34:32;;;;;;;2.10;1.60;;;;;;;23.07;34.17;100433.17;105625;1257;70182;-67
2023/06/05 08:37:00;;;;;;;1.80;1.40;;;;;;;23.06;33.96;100429.73;105123;1257;71471;-71
2023/06/05 08:39:31;;;;;;;2.20;1.60;;;;;;;23.03;33.75;100433.27;105643;1257;60475;-69
2023/06/05 08:42:00;;;;;;;3.80;1.50;;;;;;;22.97;33.66;100435.99;105822;1262;60601;-71
2023/06/05 08:44:28;;;;;;;2.50;1.50;;;;;;;22.84;33.79;100430.63;105227;1261;72719;-68
2023/06/05 08:47:00;;;;;;;2.00;1.30;;;;;;;22.74;34.58;100429.42;105027;1261;70609;-70
2023/06/05 08:49:36;;;;;;;1.60;1.50;;;;;;;22.72;35.12;100428.15;105033;1263;71428;-72
2023/06/05 08:52:08;;;;;;;3.20;1.80;;;;;;;22.75;35.95;100423.92;105475;1258;60443;-70
2023/06/05 08:54:38;;;;;;;1.90;1.60;;;;;;;22.84;35.72;100425.39;104799;1258;60519;-71
2023/06/05 08:57:06;;;;;;;2.50;1.80;;;;;;;22.99;35.20;100423.05;105040;1257;74162;-71
2023/06/05 08:59:34;;;;;;;2.00;1.70;;;;;;;23.21;34.55;100414.73;105127;1257;68661;-72
2023/06/05 09:02:01;;;;;;;5.40;1.50;;;;;;;23.52;34.34;100409.48;105213;1259;71571;-75
2023/06/05 09:04:30;;;;;;;2.50;1.40;;;;;;;23.86;33.90;100405.27;105414;1266;60511;-71
2023/06/05 09:06:58;;;;;;;3.20;1.80;;;;;;;24.28;33.56;100401.85;105307;1257;60323;-75
2023/06/05 09:09:26;;;;;;;2.30;1.60;;;;;;;24.58;33.08;100409.17;105092;1258;72521;-72
2023/06/05 09:12:08;;;;;;;3.20;1.80;;;;;;;24.75;32.57;100404.50;105607;1260;69593;-70
2023/06/05 09:14:36;;;;;;;2.70;1.90;;;;;;;24.79;32.54;100404.63;105530;1263;71370;-68
2023/06/05 09:17:03;;;;;;;1.50;1.40;;;;;;;24.75;32.34;100405.21;105223;1257;60523;-69
2023/06/05 09:19:42;;;;;;;2.30;1.40;;;;;;;24.60;32.07;100408.59;105255;1257;60600;-73
2023/06/05 09:22:12;;;;;;;2.00;1.60;;;;;;;24.36;32.59;100406.95;105514;1263;74358;-70
2023/06/05 09:24:40;;;;;;;3.00;1.80;;;;;;;24.26;33.10;100404.14;105468;1259;70162;-71
2023/06/05 09:27:11;;;;;;;3.20;1.80;;;;;;;24.07;32.34;100401.08;105106;1257;71395;-71
2023/06/05 09:29:41;;;;;;;2.80;1.80;;;;;;;23.92;33.10;100397.69;105641;1257;60532;-72
2023/06/05 09:32:16;;;;;;;3.50;1.90;;;;;;;23.98;33.10;100399.70;105142;1267;60465;-73
2023/06/05 09:34:46;;;;;;;2.00;1.90;;;;;;;24.03;32.00;100401.21;105546;1264;73831;-73
2023/06/05 09:37:14;;;;;;;4.30;1.70;;;;;;;24.18;31.46;100397.05;105484;1261;70366;-73
2023/06/05 09:39:46;;;;;;;1.80;1.60;;;;;;;24.30;31.28;100392.28;105229;1261;71945;-73
2023/06/05 09:42:13;;;;;;;2.50;1.80;;;;;;;24.41;31.13;100390.95;105525;1258;60531;-73
2023/06/05 09:44:41;;;;;;;2.60;2.10;;;;;;;24.57;31.40;100385.95;105502;1257;60623;-73
2023/06/05 09:47:10;;;;;;;3.30;1.70;;;;;;;24.75;31.79;100381.36;105368;1263;73851;-73
2023/06/05 09:49:40;;;;;;;2.70;1.70;;;;;;;24.96;31.69;100384.14;105289;1261;70584;-70
2023/06/05 09:52:10;;;;;;;1.50;1.40;;;;;;;25.18;31.61;100381.13;105115;1258;73247;-69
2023/06/05 09:54:39;;;;;;;4.00;1.50;;;;;;;25.48;31.15;100382.92;105202;1257;60520;-71
2023/06/05 09:57:11;;;;;;;2.10;1.60;;;;;;;25.92;31.03;100379.18;105450;1261;60448;-71
2023/06/05 09:59:55;;;;;;;2.40;1.80;;;;;;;26.62;30.80;100378.57;105136;1261;73893;-74
2023/06/05 10:02:33;;;;;;;2.20;1.80;;;;;;;27.52;29.37;100369.45;105372;1258;70327;-72
2023/06/05 10:05:03;;;;;;;1.90;1.80;;;;;;;28.25;28.74;100366.48;105419;1257;72048;-72
2023/06/05 10:07:32;;;;;;;2.00;1.80;;;;;;;28.91;28.19;100362.44;105599;1257;60483;-72
2023/06/05 10:09:59;;;;;;;3.70;2.00;;;;;;;29.50;27.73;100359.83;105627;1261;60326;-73
2023/06/05 10:12:27;;;;;;;3.10;1.80;;;;;;;29.64;26.77;100365.67;105590;1262;74380;-73
2023/06/05 10:14:57;;;;;;;2.20;1.90;;;;;;;29.19;26.67;100362.19;105118;1264;68968;-73
2023/06/05 10:17:25;;;;;;;3.10;1.80;;;;;;;28.79;27.20;100364.20;105550;1261;73223;-72
2023/06/05 10:19:53;;;;;;;3.00;1.80;;;;;;;28.56;27.49;100358.95;105501;1261;60527;-74
2023/06/05 10:22:21;;;;;;;2.90;1.70;;;;;;;28.33;28.15;100361.77;105547;1257;60413;-70
2023/06/05 10:24:51;;;;;;;1.80;1.70;;;;;;;28.13;27.99;100358.77;105451;1257;72824;-72
2023/06/05 10:27:57;;;;;;;3.20;1.70;;;;;;;27.85;27.92;100355.89;105492;1261;71459;-75
2023/06/05 10:30:35;;;;;;;2.30;1.80;;;;;;;27.50;28.17;100353.61;105568;1258;71387;-73
2023/06/05 10:33:03;;;;;;;2.80;2.10;;;;;;;27.17;28.14;100357.02;105598;1261;60466;-74
2023/06/05 10:35:43;;;;;;;2.50;2.00;;;;;;;26.89;28.52;100360.65;105692;1257;60529;-73
2023/06/05 10:38:23;;;;;;;2.20;1.80;;;;;;;26.66;29.00;100357.96;105236;1256;72607;-72
2023/06/05 10:40:53;;;;;;;2.70;2.10;;;;;;;26.52;29.54;100361.50;105413;1261;69086;-72
2023/06/05 10:43:24;;;;;;;4.80;2.20;;;;;;;26.45;29.67;100362.38;105535;1261;71443;-73
2023/06/05 10:49:17;;;;;;;3.40;1.90;;;;;;;26.54;30.22;100354.45;102595;1295;601315;-74
2023/06/05 10:51:45;;;;;;;2.60;2.00;;;;;;;26.98;30.06;100354.05;105372;1267;60286;-73
2023/06/05 10:54:34;;;;;;;2.90;1.70;;;;;;;27.63;29.58;100347.45;105159;1270;59126;-71
2023/06/05 10:57:02;;;;;;;2.60;1.90;;;;;;;28.65;28.38;100341.21;105162;1272;72477;-73
2023/06/05 10:59:34;;;;;;;2.20;1.90;;;;;;;29.56;27.43;100338.11;105647;1263;69343;-74
2023/06/05 11:02:04;;;;;;;3.80;2.10;;;;;;;30.55;27.00;100331.06;105479;1257;234050;-73
2023/06/05 11:04:46;;;;;;;2.80;2.10;;;;;;;31.44;26.31;100326.79;105711;1257;59549;-74
2023/06/05 11:07:21;;;;;;;2.70;1.80;;;;;;;32.01;25.54;100322.97;105916;1257;60366;-74
2023/06/05 11:10:09;;;;;;;2.50;2.00;;;;;;;32.11;25.02;100324.27;105971;1257;71541;-73
2023/06/05 11:12:39;;;;;;;3.50;1.80;;;;;;;31.98;24.94;100321.00;105883;1257;70454;-73
2023/06/05 11:15:10;;;;;;;2.30;2.10;;;;;;;31.76;25.13;100324.80;105955;1260;72676;-75
2023/06/05 11:17:38;;;;;;;2.90;1.90;;;;;;;31.52;25.43;100320.07;105948;1257;60211;-74
2023/06/05 11:20:09;;;;;;;3.60;2.30;;;;;;;31.25;25.99;100325.91;106891;1257;60322;-75
2023/06/05 11:22:53;;;;;;;4.90;2.00;;;;;;;30.94;25.56;100319.87;107867;1254;72062;-75
2023/06/05 11:25:41;;;;;;;2.50;2.00;;;;;;;30.56;25.31;100321.96;106117;1254;70737;-72
2023/06/05 11:28:09;;;;;;;3.30;2.20;;;;;;;29.81;25.64;100323.50;106676;1255;70639;-73
2023/06/05 11:30:40;;;;;;;2.50;1.70;;;;;;;28.96;25.59;100322.67;106571;1251;60293;-73